sensor_id;sensor_type;location;lat;lon;timestamp;P1;durP1;ratioP1;P2;durP2;ratioP2
14708;SDS011;7445;50.774;4.944;2023-04-03T07:01:43;21.23;;;19.10;;
14708;SDS011;7445;50.774;4.944;2023-04-03T07:04:10;21.03;;;18.97;;
14708;SDS011;7445;50.774;4.944;2023-04-03T07:06:36;22.50;;;20.20;;
14708;SDS011;7445;50.774;4.944;2023-04-03T07:09:02;20.97;;;19.20;;
14708;SDS011;7445;50.774;4.944;2023-04-03T07:11:31;22.03;;;19.97;;
14708;SDS011;7445;50.774;4.944;2023-04-03T07:16:31;22.70;;;20.70;;
14708;SDS011;7445;50.774;4.944;2023-04-03T07:22:00;22.77;;;20.63;;
14708;SDS011;7445;50.774;4.944;2023-04-03T07:24:32;23.57;;;21.17;;
14708;SDS011;7445;50.774;4.944;2023-04-03T07:27:40;22.53;;;20.33;;
14708;SDS011;7445;50.774;4.944;2023-04-03T07:30:25;21.63;;;19.37;;
14708;SDS011;7445;50.774;4.944;2023-04-03T07:33:20;21.73;;;19.63;;
14708;SDS011;7445;50.774;4.944;2023-04-03T07:35:47;23.73;;;21.47;;
14708;SDS011;7445;50.774;4.944;2023-04-03T07:38:13;21.23;;;19.23;;
14708;SDS011;7445;50.774;4.944;2023-04-03T07:40:47;23.07;;;20.63;;
14708;SDS011;7445;50.774;4.944;2023-04-03T07:43:44;21.30;;;19.30;;
14708;SDS011;7445;50.774;4.944;2023-04-03T07:46:41;19.50;;;17.23;;
14708;SDS011;7445;50.774;4.944;2023-04-03T07:49:11;22.53;;;19.00;;
14708;SDS011;7445;50.774;4.944;2023-04-03T07:52:44;18.27;;;16.77;;
14708;SDS011;7445;50.774;4.944;2023-04-03T07:55:11;18.73;;;17.00;;
14708;SDS011;7445;50.774;4.944;2023-04-03T07:57:37;19.07;;;17.17;;
14708;SDS011;7445;50.774;4.944;2023-04-03T08:00:03;19.60;;;17.83;;
14708;SDS011;7445;50.774;4.944;2023-04-03T08:02:31;17.43;;;15.63;;
14708;SDS011;7445;50.774;4.944;2023-04-03T08:04:57;17.27;;;15.73;;
14708;SDS011;7445;50.774;4.944;2023-04-03T08:07:24;22.23;;;17.07;;
14708;SDS011;7445;50.774;4.944;2023-04-03T08:09:50;18.97;;;14.03;;
14708;SDS011;7445;50.774;4.944;2023-04-03T08:12:16;15.53;;;14.13;;
14708;SDS011;7445;50.774;4.944;2023-04-03T08:14:41;13.67;;;12.40;;
14708;SDS011;7445;50.774;4.944;2023-04-03T08:17:07;17.80;;;13.57;;
14708;SDS011;7445;50.774;4.944;2023-04-03T08:19:36;13.57;;;12.20;;
14708;SDS011;7445;50.774;4.944;2023-04-03T08:22:02;13.47;;;12.17;;
14708;SDS011;7445;50.774;4.944;2023-04-03T08:24:29;12.30;;;11.20;;
14708;SDS011;7445;50.774;4.944;2023-04-03T08:26:57;13.00;;;11.40;;
14708;SDS011;7445;50.774;4.944;2023-04-03T08:29:23;11.47;;;10.40;;
14708;SDS011;7445;50.774;4.944;2023-04-03T08:31:48;12.60;;;11.30;;
14708;SDS011;7445;50.774;4.944;2023-04-03T08:34:15;13.10;;;11.73;;
14708;SDS011;7445;50.774;4.944;2023-04-03T08:36:41;15.87;;;11.17;;
14708;SDS011;7445;50.774;4.944;2023-04-03T08:39:07;12.27;;;10.97;;
14708;SDS011;7445;50.774;4.944;2023-04-03T08:41:43;11.73;;;10.33;;
14708;SDS011;7445;50.774;4.944;2023-04-03T08:55:04;11.23;;;10.20;;
14708;SDS011;7445;50.774;4.944;2023-04-03T08:57:41;11.20;;;9.10;;
14708;SDS011;7445;50.774;4.944;2023-04-03T09:00:19;11.00;;;9.80;;
14708;SDS011;7445;50.774;4.944;2023-04-03T09:02:49;11.13;;;9.77;;
14708;SDS011;7445;50.774;4.944;2023-04-03T09:06:00;12.57;;;8.70;;
14708;SDS011;7445;50.774;4.944;2023-04-03T09:08:23;8.20;;;7.40;;
14708;SDS011;7445;50.774;4.944;2023-04-03T09:11:18;8.17;;;7.20;;
14708;SDS011;7445;50.774;4.944;2023-04-03T09:19:02;8.97;;;7.77;;
14708;SDS011;7445;50.774;4.944;2023-04-03T09:21:59;9.20;;;7.60;;
14708;SDS011;7445;50.774;4.944;2023-04-03T09:24:45;8.97;;;6.87;;
14708;SDS011;7445;50.774;4.944;2023-04-03T09:27:15;7.87;;;6.13;;
14708;SDS011;7445;50.774;4.944;2023-04-03T09:29:43;6.77;;;5.90;;
14708;SDS011;7445;50.774;4.944;2023-04-03T09:32:21;7.40;;;6.40;;
14708;SDS011;7445;50.774;4.944;2023-04-03T09:34:51;6.43;;;5.63;;
14708;SDS011;7445;50.774;4.944;2023-04-03T09:40:03;7.23;;;4.80;;
14708;SDS011;7445;50.774;4.944;2023-04-03T09:42:30;5.77;;;4.90;;
14708;SDS011;7445;50.774;4.944;2023-04-03T09:45:01;6.90;;;5.33;;
14708;SDS011;7445;50.774;4.944;2023-04-03T09:47:29;7.83;;;5.20;;
14708;SDS011;7445;50.774;4.944;2023-04-03T09:52:43;5.97;;;5.33;;
14708;SDS011;7445;50.774;4.944;2023-04-03T09:55:19;6.10;;;4.97;;
14708;SDS011;7445;50.774;4.944;2023-04-03T09:57:51;4.97;;;3.97;;
14708;SDS011;7445;50.774;4.944;2023-04-03T10:00:26;4.83;;;4.23;;
14708;SDS011;7445;50.774;4.944;2023-04-03T10:03:00;4.43;;;3.73;;
14708;SDS011;7445;50.774;4.944;2023-04-03T10:10:43;6.33;;;4.53;;
14708;SDS011;7445;50.774;4.944;2023-04-03T10:13:15;6.73;;;4.30;;
14708;SDS011;7445;50.774;4.944;2023-04-03T10:18:26;5.13;;;3.73;;
14708;SDS011;7445;50.774;4.944;2023-04-03T10:23:51;4.43;;;3.50;;
14708;SDS011;7445;50.774;4.944;2023-04-03T10:31:46;5.47;;;3.57;;
14708;SDS011;7445;50.774;4.944;2023-04-03T10:34:24;6.10;;;3.27;;
14708;SDS011;7445;50.774;4.944;2023-04-03T10:37:18;4.47;;;2.90;;
14708;SDS011;7445;50.774;4.944;2023-04-03T10:39:57;5.20;;;2.37;;
14708;SDS011;7445;50.774;4.944;2023-04-03T10:42:50;6.00;;;3.23;;
14708;SDS011;7445;50.774;4.944;2023-04-03T10:45:27;4.47;;;3.17;;
14708;SDS011;7445;50.774;4.944;2023-04-03T10:53:08;3.07;;;2.83;;
14708;SDS011;7445;50.774;4.944;2023-04-03T10:55:52;2.93;;;2.67;;
14708;SDS011;7445;50.774;4.944;2023-04-03T10:58:34;2.73;;;2.40;;
14708;SDS011;7445;50.774;4.944;2023-04-03T11:01:16;5.40;;;2.57;;
14708;SDS011;7445;50.774;4.944;2023-04-03T11:03:45;6.17;;;2.40;;
14708;SDS011;7445;50.774;4.944;2023-04-03T11:06:15;5.27;;;2.13;;
14708;SDS011;7445;50.774;4.944;2023-04-03T11:09:03;6.47;;;3.33;;
14708;SDS011;7445;50.774;4.944;2023-04-03T11:11:43;4.77;;;2.50;;
14708;SDS011;7445;50.774;4.944;2023-04-03T11:25:29;3.07;;;2.77;;
14708;SDS011;7445;50.774;4.944;2023-04-03T11:28:05;3.67;;;2.57;;
14708;SDS011;7445;50.774;4.944;2023-04-03T11:38:53;2.10;;;1.73;;
14708;SDS011;7445;50.774;4.944;2023-04-03T11:41:26;2.83;;;1.60;;
14708;SDS011;7445;50.774;4.944;2023-04-03T11:58:02;1.43;;;1.33;;
14708;SDS011;7445;50.774;4.944;2023-04-03T12:00:53;15.50;;;13.30;;
14708;SDS011;7445;50.774;4.944;2023-04-03T12:11:14;5.20;;;1.93;;
14708;SDS011;7445;50.774;4.944;2023-04-03T12:24:27;1.97;;;1.60;;
14708;SDS011;7445;50.774;4.944;2023-04-03T12:32:15;3.80;;;1.70;;
14708;SDS011;7445;50.774;4.944;2023-04-03T12:35:05;4.43;;;2.80;;
14708;SDS011;7445;50.774;4.944;2023-04-03T12:45:50;4.33;;;2.00;;
14708;SDS011;7445;50.774;4.944;2023-04-03T12:48:17;4.60;;;3.23;;
14708;SDS011;7445;50.774;4.944;2023-04-03T12:50:49;3.03;;;2.60;;
14708;SDS011;7445;50.774;4.944;2023-04-03T12:53:22;3.23;;;2.37;;
14708;SDS011;7445;50.774;4.944;2023-04-03T12:55:55;5.60;;;1.87;;
14708;SDS011;7445;50.774;4.944;2023-04-03T12:58:23;3.53;;;2.27;;
14708;SDS011;7445;50.774;4.944;2023-04-03T13:01:02;2.53;;;2.03;;
14708;SDS011;7445;50.774;4.944;2023-04-03T13:03:29;2.90;;;2.00;;
14708;SDS011;7445;50.774;4.944;2023-04-03T13:06:00;4.77;;;2.67;;
14708;SDS011;7445;50.774;4.944;2023-04-03T13:08:28;5.70;;;2.60;;
14708;SDS011;7445;50.774;4.944;2023-04-03T13:11:02;4.40;;;2.77;;
14708;SDS011;7445;50.774;4.944;2023-04-03T13:13:33;2.93;;;2.60;;
14708;SDS011;7445;50.774;4.944;2023-04-03T13:15:59;3.17;;;2.40;;
14708;SDS011;7445;50.774;4.944;2023-04-03T13:18:35;3.63;;;2.27;;
14708;SDS011;7445;50.774;4.944;2023-04-03T13:21:04;4.37;;;2.00;;
14708;SDS011;7445;50.774;4.944;2023-04-03T13:23:40;2.60;;;2.10;;
14708;SDS011;7445;50.774;4.944;2023-04-03T13:26:10;3.07;;;2.13;;
14708;SDS011;7445;50.774;4.944;2023-04-03T13:28:36;7.60;;;2.37;;
14708;SDS011;7445;50.774;4.944;2023-04-03T13:33:56;7.57;;;2.93;;
14708;SDS011;7445;50.774;4.944;2023-04-03T13:36:31;3.00;;;2.07;;
14708;SDS011;7445;50.774;4.944;2023-04-03T13:41:50;7.80;;;2.47;;
14708;SDS011;7445;50.774;4.944;2023-04-03T13:49:19;3.83;;;2.47;;
14708;SDS011;7445;50.774;4.944;2023-04-03T13:51:51;4.07;;;2.47;;
14708;SDS011;7445;50.774;4.944;2023-04-03T13:54:20;4.20;;;2.50;;
14708;SDS011;7445;50.774;4.944;2023-04-03T13:56:55;3.77;;;2.57;;
14708;SDS011;7445;50.774;4.944;2023-04-03T14:07:02;5.33;;;3.27;;
14708;SDS011;7445;50.774;4.944;2023-04-03T14:09:28;4.77;;;3.13;;
14708;SDS011;7445;50.774;4.944;2023-04-03T14:11:59;4.60;;;3.37;;
14708;SDS011;7445;50.774;4.944;2023-04-03T14:14:31;2.53;;;2.30;;
14708;SDS011;7445;50.774;4.944;2023-04-03T14:16:59;4.13;;;2.63;;
14708;SDS011;7445;50.774;4.944;2023-04-03T14:19:28;5.07;;;3.03;;
14708;SDS011;7445;50.774;4.944;2023-04-03T14:21:56;4.97;;;2.07;;
14708;SDS011;7445;50.774;4.944;2023-04-03T14:24:22;7.40;;;4.03;;
14708;SDS011;7445;50.774;4.944;2023-04-03T14:26:49;3.30;;;3.00;;
14708;SDS011;7445;50.774;4.944;2023-04-03T14:29:17;5.43;;;3.07;;
14708;SDS011;7445;50.774;4.944;2023-04-03T14:31:45;5.03;;;2.33;;
14708;SDS011;7445;50.774;4.944;2023-04-03T14:34:11;3.37;;;2.37;;
14708;SDS011;7445;50.774;4.944;2023-04-03T14:36:38;5.17;;;2.40;;
14708;SDS011;7445;50.774;4.944;2023-04-03T14:39:06;3.57;;;2.50;;
14708;SDS011;7445;50.774;4.944;2023-04-03T14:41:33;3.47;;;2.40;;
14708;SDS011;7445;50.774;4.944;2023-04-03T14:43:59;4.13;;;2.90;;
14708;SDS011;7445;50.774;4.944;2023-04-03T14:46:29;3.23;;;2.47;;
14708;SDS011;7445;50.774;4.944;2023-04-03T14:48:57;4.50;;;2.70;;
14708;SDS011;7445;50.774;4.944;2023-04-03T14:51:23;4.73;;;2.97;;
14708;SDS011;7445;50.774;4.944;2023-04-03T14:53:48;3.37;;;2.27;;
14708;SDS011;7445;50.774;4.944;2023-04-03T14:56:16;3.03;;;2.43;;
14708;SDS011;7445;50.774;4.944;2023-04-03T14:59:44;3.50;;;2.10;;
14708;SDS011;7445;50.774;4.944;2023-04-03T15:02:31;2.53;;;2.33;;
14708;SDS011;7445;50.774;4.944;2023-04-03T15:05:52;5.13;;;2.70;;
14708;SDS011;7445;50.774;4.944;2023-04-03T15:08:57;3.73;;;2.40;;
14708;SDS011;7445;50.774;4.944;2023-04-03T15:11:23;3.17;;;2.13;;
14708;SDS011;7445;50.774;4.944;2023-04-03T15:13:51;7.63;;;2.73;;
14708;SDS011;7445;50.774;4.944;2023-04-03T15:16:20;8.00;;;3.47;;
14708;SDS011;7445;50.774;4.944;2023-04-03T15:19:05;5.63;;;2.93;;
14708;SDS011;7445;50.774;4.944;2023-04-03T15:21:56;4.20;;;3.00;;
14708;SDS011;7445;50.774;4.944;2023-04-03T15:24:41;6.07;;;2.43;;
14708;SDS011;7445;50.774;4.944;2023-04-03T15:27:09;13.87;;;2.37;;
14708;SDS011;7445;50.774;4.944;2023-04-03T15:29:37;2.60;;;2.27;;
14708;SDS011;7445;50.774;4.944;2023-04-03T15:35:12;4.43;;;2.73;;
14708;SDS011;7445;50.774;4.944;2023-04-03T15:37:39;4.90;;;3.07;;
14708;SDS011;7445;50.774;4.944;2023-04-03T15:40:26;3.27;;;2.73;;
14708;SDS011;7445;50.774;4.944;2023-04-03T15:42:52;6.30;;;2.57;;
14708;SDS011;7445;50.774;4.944;2023-04-03T15:45:17;2.27;;;2.13;;
14708;SDS011;7445;50.774;4.944;2023-04-03T15:47:43;4.57;;;3.07;;
14708;SDS011;7445;50.774;4.944;2023-04-03T15:50:15;2.97;;;2.70;;
14708;SDS011;7445;50.774;4.944;2023-04-03T15:52:41;4.77;;;2.33;;
14708;SDS011;7445;50.774;4.944;2023-04-03T15:55:08;4.40;;;3.20;;
14708;SDS011;7445;50.774;4.944;2023-04-03T15:57:35;3.73;;;2.73;;
14708;SDS011;7445;50.774;4.944;2023-04-03T16:00:02;2.93;;;2.17;;
14708;SDS011;7445;50.774;4.944;2023-04-03T16:02:32;3.50;;;2.67;;
14708;SDS011;7445;50.774;4.944;2023-04-03T16:04:59;3.40;;;3.10;;
14708;SDS011;7445;50.774;4.944;2023-04-03T16:07:36;3.03;;;2.33;;
14708;SDS011;7445;50.774;4.944;2023-04-03T16:10:03;3.33;;;2.57;;
14708;SDS011;7445;50.774;4.944;2023-04-03T16:12:31;3.30;;;2.17;;
14708;SDS011;7445;50.774;4.944;2023-04-03T16:14:56;2.27;;;2.00;;
14708;SDS011;7445;50.774;4.944;2023-04-03T16:17:23;2.13;;;1.87;;
14708;SDS011;7445;50.774;4.944;2023-04-03T16:19:51;7.20;;;3.13;;
14708;SDS011;7445;50.774;4.944;2023-04-03T16:22:17;4.90;;;2.73;;
14708;SDS011;7445;50.774;4.944;2023-04-03T16:24:43;5.50;;;2.47;;
14708;SDS011;7445;50.774;4.944;2023-04-03T16:27:08;3.37;;;2.40;;
14708;SDS011;7445;50.774;4.944;2023-04-03T16:29:34;10.77;;;1.80;;
14708;SDS011;7445;50.774;4.944;2023-04-03T16:32:00;1.73;;;1.63;;
14708;SDS011;7445;50.774;4.944;2023-04-03T16:34:26;5.20;;;2.37;;
14708;SDS011;7445;50.774;4.944;2023-04-03T16:37:07;1.83;;;1.73;;
14708;SDS011;7445;50.774;4.944;2023-04-03T16:39:34;3.10;;;1.80;;
14708;SDS011;7445;50.774;4.944;2023-04-03T16:42:03;3.30;;;2.30;;
14708;SDS011;7445;50.774;4.944;2023-04-03T16:44:36;8.43;;;2.30;;
14708;SDS011;7445;50.774;4.944;2023-04-03T16:47:43;8.17;;;2.83;;
14708;SDS011;7445;50.774;4.944;2023-04-03T16:50:09;3.30;;;2.17;;
14708;SDS011;7445;50.774;4.944;2023-04-03T16:52:36;6.20;;;2.30;;
14708;SDS011;7445;50.774;4.944;2023-04-03T16:55:06;2.43;;;2.10;;
14708;SDS011;7445;50.774;4.944;2023-04-03T16:57:32;4.37;;;2.27;;
14708;SDS011;7445;50.774;4.944;2023-04-03T17:00:00;5.83;;;2.50;;
14708;SDS011;7445;50.774;4.944;2023-04-03T17:02:26;4.40;;;2.37;;
14708;SDS011;7445;50.774;4.944;2023-04-03T17:04:53;5.23;;;1.80;;
14708;SDS011;7445;50.774;4.944;2023-04-03T17:07:21;2.73;;;2.03;;
14708;SDS011;7445;50.774;4.944;2023-04-03T17:09:48;5.03;;;2.17;;
14708;SDS011;7445;50.774;4.944;2023-04-03T17:12:14;4.17;;;2.20;;
14708;SDS011;7445;50.774;4.944;2023-04-03T17:14:41;3.17;;;2.03;;
14708;SDS011;7445;50.774;4.944;2023-04-03T17:17:08;3.43;;;2.40;;
14708;SDS011;7445;50.774;4.944;2023-04-03T17:19:35;1.97;;;1.87;;
14708;SDS011;7445;50.774;4.944;2023-04-03T17:22:01;3.53;;;2.23;;
14708;SDS011;7445;50.774;4.944;2023-04-03T17:24:27;2.57;;;2.03;;
14708;SDS011;7445;50.774;4.944;2023-04-03T17:26:53;8.43;;;2.07;;
14708;SDS011;7445;50.774;4.944;2023-04-03T17:29:19;5.30;;;2.57;;
14708;SDS011;7445;50.774;4.944;2023-04-03T17:31:45;4.17;;;2.57;;
14708;SDS011;7445;50.774;4.944;2023-04-03T17:34:11;5.50;;;2.27;;
14708;SDS011;7445;50.774;4.944;2023-04-03T17:36:37;9.20;;;2.60;;
14708;SDS011;7445;50.774;4.944;2023-04-03T17:39:03;2.93;;;2.00;;
14708;SDS011;7445;50.774;4.944;2023-04-03T17:41:29;2.60;;;2.13;;
14708;SDS011;7445;50.774;4.944;2023-04-03T17:43:55;3.33;;;2.47;;
14708;SDS011;7445;50.774;4.944;2023-04-03T17:46:21;5.80;;;2.73;;
14708;SDS011;7445;50.774;4.944;2023-04-03T17:48:48;4.13;;;2.33;;
14708;SDS011;7445;50.774;4.944;2023-04-03T17:51:15;5.90;;;2.27;;
14708;SDS011;7445;50.774;4.944;2023-04-03T17:53:42;4.67;;;1.90;;
14708;SDS011;7445;50.774;4.944;2023-04-03T17:56:11;2.97;;;1.97;;
14708;SDS011;7445;50.774;4.944;2023-04-03T17:58:38;3.70;;;1.87;;
14708;SDS011;7445;50.774;4.944;2023-04-03T18:01:12;3.67;;;2.20;;
14708;SDS011;7445;50.774;4.944;2023-04-03T18:03:38;3.17;;;2.13;;
14708;SDS011;7445;50.774;4.944;2023-04-03T18:06:04;1.77;;;1.57;;
14708;SDS011;7445;50.774;4.944;2023-04-03T18:08:48;3.03;;;1.93;;
14708;SDS011;7445;50.774;4.944;2023-04-03T18:11:16;3.33;;;1.87;;
14708;SDS011;7445;50.774;4.944;2023-04-03T18:13:44;3.27;;;2.27;;
14708;SDS011;7445;50.774;4.944;2023-04-03T18:16:10;2.20;;;2.00;;
14708;SDS011;7445;50.774;4.944;2023-04-03T18:18:37;2.63;;;2.23;;
14708;SDS011;7445;50.774;4.944;2023-04-03T18:21:03;2.40;;;1.97;;
14708;SDS011;7445;50.774;4.944;2023-04-03T18:23:30;3.90;;;2.00;;
14708;SDS011;7445;50.774;4.944;2023-04-03T18:25:58;2.60;;;2.40;;
14708;SDS011;7445;50.774;4.944;2023-04-03T18:28:26;3.43;;;2.43;;
14708;SDS011;7445;50.774;4.944;2023-04-03T18:30:54;5.00;;;3.70;;
14708;SDS011;7445;50.774;4.944;2023-04-03T18:33:19;3.00;;;2.67;;
14708;SDS011;7445;50.774;4.944;2023-04-03T18:35:45;3.50;;;2.53;;
14708;SDS011;7445;50.774;4.944;2023-04-03T18:38:10;3.63;;;2.70;;
14708;SDS011;7445;50.774;4.944;2023-04-03T18:40:36;2.83;;;2.43;;
14708;SDS011;7445;50.774;4.944;2023-04-03T18:43:03;1.70;;;1.60;;
14708;SDS011;7445;50.774;4.944;2023-04-03T18:45:28;5.10;;;2.17;;
14708;SDS011;7445;50.774;4.944;2023-04-03T18:47:54;3.97;;;2.10;;
14708;SDS011;7445;50.774;4.944;2023-04-03T18:50:21;2.53;;;2.07;;
14708;SDS011;7445;50.774;4.944;2023-04-03T18:52:47;2.60;;;2.30;;
14708;SDS011;7445;50.774;4.944;2023-04-03T18:55:15;2.40;;;2.20;;
14708;SDS011;7445;50.774;4.944;2023-04-03T18:57:43;4.80;;;3.10;;
14708;SDS011;7445;50.774;4.944;2023-04-03T19:00:10;4.27;;;2.37;;
14708;SDS011;7445;50.774;4.944;2023-04-03T19:02:36;5.97;;;2.60;;
14708;SDS011;7445;50.774;4.944;2023-04-03T19:05:02;3.67;;;2.40;;
14708;SDS011;7445;50.774;4.944;2023-04-03T19:07:29;5.00;;;2.73;;
14708;SDS011;7445;50.774;4.944;2023-04-03T19:09:55;3.73;;;2.17;;
14708;SDS011;7445;50.774;4.944;2023-04-03T19:12:21;2.87;;;2.30;;
14708;SDS011;7445;50.774;4.944;2023-04-03T19:14:46;4.13;;;3.23;;
14708;SDS011;7445;50.774;4.944;2023-04-03T19:17:12;7.03;;;2.37;;
14708;SDS011;7445;50.774;4.944;2023-04-03T19:19:37;3.93;;;2.53;;
14708;SDS011;7445;50.774;4.944;2023-04-03T19:22:03;3.10;;;2.50;;
14708;SDS011;7445;50.774;4.944;2023-04-03T19:24:28;9.77;;;3.80;;
14708;SDS011;7445;50.774;4.944;2023-04-03T19:26:54;6.53;;;3.53;;
14708;SDS011;7445;50.774;4.944;2023-04-03T19:29:20;7.57;;;3.27;;
14708;SDS011;7445;50.774;4.944;2023-04-03T19:31:45;3.90;;;3.07;;
14708;SDS011;7445;50.774;4.944;2023-04-03T19:34:12;3.40;;;3.03;;
14708;SDS011;7445;50.774;4.944;2023-04-03T19:36:38;5.03;;;2.93;;
14708;SDS011;7445;50.774;4.944;2023-04-03T19:39:04;2.93;;;2.50;;
14708;SDS011;7445;50.774;4.944;2023-04-03T19:41:30;7.53;;;3.33;;
14708;SDS011;7445;50.774;4.944;2023-04-03T19:43:58;4.13;;;2.83;;
14708;SDS011;7445;50.774;4.944;2023-04-03T19:46:24;5.03;;;3.40;;
14708;SDS011;7445;50.774;4.944;2023-04-03T19:48:52;7.40;;;3.23;;
14708;SDS011;7445;50.774;4.944;2023-04-03T19:51:18;2.83;;;2.27;;
14708;SDS011;7445;50.774;4.944;2023-04-03T19:53:44;4.67;;;2.67;;
14708;SDS011;7445;50.774;4.944;2023-04-03T19:56:11;2.67;;;2.27;;
14708;SDS011;7445;50.774;4.944;2023-04-03T19:58:37;5.87;;;3.33;;
14708;SDS011;7445;50.774;4.944;2023-04-03T20:01:03;3.60;;;2.90;;
14708;SDS011;7445;50.774;4.944;2023-04-03T20:03:29;5.00;;;3.00;;
14708;SDS011;7445;50.774;4.944;2023-04-03T20:05:55;5.50;;;3.37;;
14708;SDS011;7445;50.774;4.944;2023-04-03T20:08:21;5.17;;;3.40;;
14708;SDS011;7445;50.774;4.944;2023-04-03T20:10:49;25.90;;;18.93;;
14708;SDS011;7445;50.774;4.944;2023-04-03T20:13:15;5.90;;;4.67;;
14708;SDS011;7445;50.774;4.944;2023-04-03T20:15:40;6.60;;;4.20;;
14708;SDS011;7445;50.774;4.944;2023-04-03T20:18:12;3.17;;;2.93;;
14708;SDS011;7445;50.774;4.944;2023-04-03T20:20:43;3.63;;;2.90;;
14708;SDS011;7445;50.774;4.944;2023-04-03T20:23:10;4.90;;;2.63;;
14708;SDS011;7445;50.774;4.944;2023-04-03T20:25:43;4.60;;;2.90;;
14708;SDS011;7445;50.774;4.944;2023-04-03T20:28:10;3.30;;;2.80;;
14708;SDS011;7445;50.774;4.944;2023-04-03T20:30:37;5.60;;;2.90;;
14708;SDS011;7445;50.774;4.944;2023-04-03T20:33:03;4.00;;;2.50;;
14708;SDS011;7445;50.774;4.944;2023-04-03T20:35:30;5.27;;;3.10;;
14708;SDS011;7445;50.774;4.944;2023-04-03T20:37:59;4.13;;;2.57;;
14708;SDS011;7445;50.774;4.944;2023-04-03T20:40:25;5.60;;;3.70;;
14708;SDS011;7445;50.774;4.944;2023-04-03T20:42:51;4.40;;;2.60;;
14708;SDS011;7445;50.774;4.944;2023-04-03T20:45:18;3.73;;;2.80;;
14708;SDS011;7445;50.774;4.944;2023-04-03T20:47:45;3.83;;;2.40;;
14708;SDS011;7445;50.774;4.944;2023-04-03T20:50:11;4.83;;;2.93;;
14708;SDS011;7445;50.774;4.944;2023-04-03T20:52:37;5.50;;;3.47;;
14708;SDS011;7445;50.774;4.944;2023-04-03T20:55:03;3.33;;;3.03;;
14708;SDS011;7445;50.774;4.944;2023-04-03T20:57:29;6.73;;;3.10;;
14708;SDS011;7445;50.774;4.944;2023-04-03T20:59:55;3.97;;;2.10;;
14708;SDS011;7445;50.774;4.944;2023-04-03T21:02:21;5.80;;;3.03;;
14708;SDS011;7445;50.774;4.944;2023-04-03T21:04:49;6.10;;;3.23;;
14708;SDS011;7445;50.774;4.944;2023-04-03T21:19:12;3.20;;;2.80;;
14708;SDS011;7445;50.774;4.944;2023-04-03T21:21:40;4.57;;;3.53;;
14708;SDS011;7445;50.774;4.944;2023-04-03T21:24:09;3.60;;;2.57;;
14708;SDS011;7445;50.774;4.944;2023-04-03T21:26:36;5.60;;;3.00;;
14708;SDS011;7445;50.774;4.944;2023-04-03T21:29:04;4.27;;;2.50;;
14708;SDS011;7445;50.774;4.944;2023-04-03T21:34:15;4.43;;;2.83;;
